createdAt,value
2023-02-04T00:00:21.678Z,101670.16
2023-02-04T00:03:23.164Z,101664.00
2023-02-04T00:06:24.685Z,101675.09
2023-02-04T00:09:26.194Z,101670.78
2023-02-04T00:12:27.677Z,101673.75
2023-02-04T00:15:29.885Z,101674.88
2023-02-04T00:18:31.323Z,101676.84
2023-02-04T00:21:33.073Z,101685.97
2023-02-04T00:24:38.186Z,101686.09
2023-02-04T00:27:39.754Z,101698.06
2023-02-04T00:30:41.321Z,101697.47
2023-02-04T00:33:43.905Z,101702.16
2023-02-04T00:36:45.536Z,101704.00
2023-02-04T00:39:47.263Z,101705.97
2023-02-04T00:42:48.794Z,101713.38
2023-02-04T00:45:50.344Z,101705.47
2023-02-04T00:48:51.912Z,101722.75
2023-02-04T00:51:53.371Z,101733.72
2023-02-04T00:54:54.850Z,101742.94
2023-02-04T00:57:56.957Z,101753.94
2023-02-04T01:00:58.474Z,101758.63
2023-02-04T01:04:00.144Z,101784.88
2023-02-04T01:07:01.726Z,101775.13
2023-02-04T01:10:03.956Z,101784.22
2023-02-04T01:13:05.501Z,101792.50
2023-02-04T01:16:06.991Z,101796.31
2023-02-04T01:19:08.946Z,101812.69
2023-02-04T01:22:10.450Z,101821.94
2023-02-04T01:25:12.049Z,101825.63
2023-02-04T01:28:17.024Z,101832.03
2023-02-04T01:31:18.666Z,101836.69
2023-02-04T01:34:20.365Z,101840.50
2023-02-04T01:37:21.962Z,101854.06
2023-02-04T01:40:23.738Z,101856.03
2023-02-04T01:43:25.583Z,101863.28
2023-02-04T01:46:27.326Z,101867.09
2023-02-04T01:49:29.424Z,101876.22
2023-02-04T01:52:35.228Z,101885.34
2023-02-04T01:55:36.798Z,101893.59
2023-02-04T01:58:38.289Z,101900.97
2023-02-04T02:01:41.814Z,101907.38
2023-02-04T02:04:43.377Z,101916.47
2023-02-04T02:07:45.020Z,101920.28
2023-02-04T02:10:49.141Z,101930.25
2023-02-04T02:13:50.764Z,101932.22
2023-02-04T02:16:52.357Z,101932.22
2023-02-04T02:19:53.888Z,101935.06
2023-02-04T02:23:26.961Z,101942.31
2023-02-04T02:26:28.758Z,101943.41
2023-02-04T02:29:30.403Z,101948.94
2023-02-04T02:32:32.127Z,101960.78
2023-02-04T02:35:34.343Z,101973.44
2023-02-04T02:38:36.089Z,101973.56
2023-02-04T02:41:38.010Z,101992.63
2023-02-04T02:44:39.596Z,101991.78
2023-02-04T02:47:41.245Z,102004.47
2023-02-04T02:50:43.713Z,101999.09
2023-02-04T02:53:47.893Z,102005.31
2023-02-04T02:56:50.157Z,102005.50
2023-02-04T02:59:52.168Z,102010.94
2023-02-04T03:03:06.538Z,102017.09
2023-02-04T03:06:13.309Z,102024.38
2023-02-04T03:09:16.016Z,102026.19
2023-02-04T03:12:21.990Z,102029.91
2023-02-04T03:15:23.606Z,102045.25
2023-02-04T03:18:25.353Z,102056.09
2023-02-04T03:21:27.353Z,102059.78
2023-02-04T03:24:28.944Z,102052.66
2023-02-04T03:27:32.638Z,102063.59
2023-02-04T03:30:34.262Z,102082.44
2023-02-04T03:33:35.931Z,102088.84
2023-02-04T03:36:37.661Z,102100.66
2023-02-04T03:39:40.299Z,102101.41
2023-02-04T03:42:41.898Z,102111.25
2023-02-04T03:45:45.755Z,102116.69
2023-02-04T03:48:47.396Z,102120.25
2023-02-04T03:51:48.985Z,102115.81
2023-02-04T03:54:50.492Z,102128.38
2023-02-04T03:57:53.130Z,102130.22
2023-02-04T04:00:54.607Z,102138.44
2023-02-04T04:03:56.100Z,102145.63
2023-02-04T04:06:57.669Z,102145.63
2023-02-04T04:09:59.176Z,102147.47
2023-02-04T04:13:00.658Z,102149.19
2023-02-04T04:16:03.856Z,102145.63
2023-02-04T04:19:05.413Z,102148.19
2023-02-04T04:22:06.981Z,102159.16
2023-02-04T04:25:08.711Z,102166.44
2023-02-04T04:28:11.630Z,102180.81
2023-02-04T04:31:13.461Z,102189.91
2023-02-04T04:34:15.052Z,102189.91
2023-02-04T04:37:16.679Z,102194.59
2023-02-04T04:40:18.376Z,102197.31
2023-02-04T04:43:20.110Z,102202.72
2023-02-04T04:46:21.704Z,102210.84
2023-02-04T04:49:24.143Z,102216.38
2023-02-04T04:52:25.620Z,102220.78
2023-02-04T04:55:27.140Z,102212.78
2023-02-04T04:58:28.633Z,102220.16
2023-02-04T05:01:30.146Z,102228.28
2023-02-04T05:04:31.729Z,102231.97
2023-02-04T05:07:33.281Z,102231.09
2023-02-04T05:10:34.751Z,102231.97
2023-02-04T05:13:36.210Z,102238.34
2023-02-04T05:16:37.861Z,102241.19
2023-02-04T05:19:39.382Z,102250.16
2023-02-04T05:22:40.877Z,102261.97
2023-02-04T05:25:42.553Z,102265.66
2023-02-04T05:28:44.043Z,102268.38
2023-02-04T05:31:45.625Z,102271.16
2023-02-04T05:34:47.239Z,102280.19
2023-02-04T05:37:48.724Z,102291.97
2023-02-04T05:40:50.221Z,102284.84
2023-02-04T05:43:51.753Z,102286.69
2023-02-04T05:46:53.257Z,102291.19
2023-02-04T05:49:54.822Z,102289.38
2023-02-04T05:52:56.516Z,102302.03
2023-02-04T05:55:58.018Z,102313.09
2023-02-04T05:58:59.525Z,102317.63
2023-02-04T06:02:01.044Z,102315.03
2023-02-04T06:05:02.551Z,102324.91
2023-02-04T06:08:04.290Z,102320.34
2023-02-04T06:11:05.849Z,102322.97
2023-02-04T06:14:07.845Z,102325.53
2023-02-04T06:17:09.375Z,102334.53
2023-02-04T06:20:13.333Z,102343.44
2023-02-04T06:23:14.917Z,102348.84
2023-02-04T06:26:16.432Z,102344.28
2023-02-04T06:29:17.985Z,102355.13
2023-02-04T06:32:20.689Z,102362.38
2023-02-04T06:35:22.175Z,102366.94
2023-02-04T06:38:23.680Z,102367.81
2023-02-04T06:41:25.243Z,102361.63
2023-02-04T06:44:26.757Z,102364.31
2023-02-04T06:47:28.308Z,102375.16
2023-02-04T06:50:30.145Z,102377.00
2023-02-04T06:53:31.868Z,102381.47
2023-02-04T06:56:33.358Z,102385.03
2023-02-04T06:59:36.472Z,102389.59
2023-02-04T07:02:39.595Z,102403.13
2023-02-04T07:05:41.196Z,102417.63
2023-02-04T07:08:42.680Z,102417.75
2023-02-04T07:11:44.139Z,102419.56
2023-02-04T07:14:45.642Z,102426.75
2023-02-04T07:17:47.194Z,102430.41
2023-02-04T07:20:48.679Z,102433.22
2023-02-04T07:23:50.141Z,102422.47
2023-02-04T07:26:51.627Z,102440.56
2023-02-04T07:29:53.074Z,102445.13
2023-02-04T07:32:54.842Z,102451.50
2023-02-04T07:35:56.273Z,102458.75
2023-02-04T07:38:57.714Z,102459.75
2023-02-04T07:41:59.224Z,102468.72
2023-02-04T07:45:08.517Z,102464.16
2023-02-04T07:48:10.869Z,102455.97
2023-02-04T07:51:12.362Z,102464.75
2023-02-04T07:54:13.930Z,102466.50
2023-02-04T07:57:15.455Z,102479.81
2023-02-04T08:00:17.258Z,102487.75
2023-02-04T08:03:18.803Z,102497.50
2023-02-04T08:06:20.297Z,102504.56
2023-02-04T08:09:21.837Z,102511.63
2023-02-04T08:12:23.409Z,102501.44
2023-02-04T08:15:24.895Z,102507.53
2023-02-04T08:18:26.372Z,102508.22
2023-02-04T08:21:27.923Z,102507.16
2023-02-04T08:24:29.419Z,102506.97
2023-02-04T08:27:31.226Z,102499.50
2023-02-04T08:30:33.007Z,102502.13
2023-02-04T08:33:34.763Z,102501.13
2023-02-04T08:36:36.259Z,102511.88
2023-02-04T08:39:38.411Z,102520.75
2023-02-04T08:42:39.904Z,102516.09
2023-02-04T08:45:41.487Z,102509.72
2023-02-04T08:48:43.054Z,102522.28
2023-02-04T08:51:44.610Z,102535.63
2023-02-04T08:54:46.282Z,102533.78
2023-02-04T08:57:47.757Z,102539.13
2023-02-04T09:00:49.286Z,102543.56
2023-02-04T09:03:50.816Z,102544.44
2023-02-04T09:06:52.354Z,102552.44
2023-02-04T09:09:53.832Z,102555.06
2023-02-04T09:12:56.112Z,102551.16
2023-02-04T09:15:57.738Z,102551.16
2023-02-04T09:18:59.381Z,102555.63
2023-02-04T09:22:00.866Z,102563.63
2023-02-04T09:25:02.384Z,102573.53
2023-02-04T09:28:03.988Z,102568.97
2023-02-04T09:31:06.458Z,102582.44
2023-02-04T09:34:08.017Z,102583.31
2023-02-04T09:37:09.573Z,102575.03
2023-02-04T09:40:16.998Z,102575.81
2023-02-04T09:43:27.641Z,102584.72
2023-02-04T09:46:30.258Z,102590.25
2023-02-04T09:49:32.461Z,102592.84
2023-02-04T09:52:34.135Z,102593.72
2023-02-04T09:55:39.250Z,102604.47
2023-02-04T09:58:41.917Z,102600.78
2023-02-04T10:01:44.224Z,102610.69
2023-02-04T10:04:45.698Z,102607.06
2023-02-04T10:07:47.749Z,102622.38
2023-02-04T10:10:49.591Z,102632.25
2023-02-04T10:13:54.589Z,102631.28
2023-02-04T10:17:01.489Z,102624.88
2023-02-04T10:20:03.907Z,102633.88
2023-02-04T10:23:12.593Z,102640.00
2023-02-04T10:26:15.365Z,102642.56
2023-02-04T10:29:19.767Z,102649.63
2023-02-04T10:32:33.391Z,102650.50
2023-02-04T10:35:45.771Z,102637.72
2023-02-04T10:38:59.945Z,102644.00
2023-02-04T10:42:01.741Z,102649.53
2023-02-04T10:45:04.011Z,102641.41
2023-02-04T10:48:05.902Z,102638.69
2023-02-04T10:51:12.710Z,102650.31
2023-02-04T10:54:35.019Z,102652.13
2023-02-04T10:57:39.758Z,102650.31
2023-02-04T11:00:41.552Z,102661.16
2023-02-04T11:03:45.336Z,102659.31
2023-02-04T11:06:47.889Z,102651.19
2023-02-04T11:09:49.804Z,102655.63
2023-02-04T11:12:53.997Z,102647.41
2023-02-04T11:16:18.688Z,102656.41
2023-02-04T11:19:36.469Z,102658.25
2023-02-04T11:22:44.279Z,102656.41
2023-02-04T11:25:45.883Z,102649.13
2023-02-04T11:28:59.381Z,102658.91
2023-02-04T11:32:04.661Z,102648.91
2023-02-04T11:35:10.329Z,102656.97
2023-02-04T11:38:29.287Z,102653.25
2023-02-04T11:41:33.260Z,102655.97
2023-02-04T11:44:34.785Z,102655.09
2023-02-04T11:47:36.908Z,102670.44
2023-02-04T11:50:38.819Z,102674.00
2023-02-04T11:53:40.482Z,102665.00
2023-02-04T11:56:42.210Z,102665.88
2023-02-04T11:59:43.706Z,102672.25
2023-02-04T12:02:51.840Z,102666.81
2023-02-04T12:05:55.068Z,102663.38
2023-02-04T12:09:06.042Z,102665.09
2023-02-04T12:12:07.645Z,102665.19
2023-02-04T12:15:16.028Z,102671.50
2023-02-04T12:18:17.782Z,102672.47
2023-02-04T12:21:19.432Z,102672.38
2023-02-04T12:24:20.954Z,102677.78
2023-02-04T12:27:22.963Z,102684.09
2023-02-04T12:30:26.059Z,102675.09
2023-02-04T12:33:27.743Z,102678.66
2023-02-04T12:36:29.764Z,102676.81
2023-02-04T12:39:31.960Z,102677.78
2023-02-04T12:42:33.497Z,102679.53
2023-02-04T12:45:35.114Z,102689.50
2023-02-04T12:48:40.870Z,102690.28
2023-02-04T12:51:42.341Z,102680.28
2023-02-04T12:54:43.802Z,102692.00
2023-02-04T12:57:45.299Z,102698.28
2023-02-04T13:00:46.826Z,102695.72
2023-02-04T13:03:48.310Z,102693.00
2023-02-04T13:06:49.819Z,102696.56
2023-02-04T13:09:52.226Z,102694.84
2023-02-04T13:12:53.704Z,102692.13
2023-02-04T13:15:55.262Z,102697.56
2023-02-04T13:18:56.943Z,102702.97
2023-02-04T13:21:59.189Z,102705.69
2023-02-04T13:25:01.747Z,102715.66
2023-02-04T13:28:05.600Z,102704.81
2023-02-04T13:31:07.683Z,102708.50
2023-02-04T13:34:09.299Z,102708.50
2023-02-04T13:37:10.987Z,102706.66
2023-02-04T13:40:13.028Z,102711.22
2023-02-04T13:43:14.628Z,102694.06
2023-02-04T13:46:16.113Z,102697.66
2023-02-04T13:49:17.611Z,102694.06
2023-02-04T13:52:19.195Z,102690.50
2023-02-04T13:55:21.093Z,102692.31
2023-02-04T13:58:22.562Z,102698.63
2023-02-04T14:01:24.214Z,102698.63
2023-02-04T14:04:27.008Z,102697.66
2023-02-04T14:07:28.528Z,102688.66
2023-02-04T14:10:30.351Z,102692.22
2023-02-04T14:13:32.000Z,102698.63
2023-02-04T14:16:33.709Z,102698.63
2023-02-04T14:19:35.948Z,102686.88
2023-02-04T14:22:37.396Z,102689.59
2023-02-04T14:25:38.900Z,102692.31
2023-02-04T14:28:40.373Z,102703.16
2023-02-04T14:31:42.217Z,102696.00
2023-02-04T14:34:43.699Z,102701.44
2023-02-04T14:37:45.397Z,102699.59
2023-02-04T14:40:47.033Z,102703.16
2023-02-04T14:43:48.807Z,102712.28
2023-02-04T14:46:50.451Z,102717.72
2023-02-04T14:49:52.057Z,102704.16
2023-02-04T14:52:54.406Z,102704.16
2023-02-04T14:55:55.992Z,102707.84
2023-02-04T14:58:57.516Z,102712.28
2023-02-04T15:01:59.158Z,102708.72
2023-02-04T15:05:00.725Z,102713.28
2023-02-04T15:08:02.371Z,102708.72
2023-02-04T15:11:03.988Z,102706.94
2023-02-04T15:14:05.514Z,102703.38
2023-02-04T15:17:07.022Z,102708.78
2023-02-04T15:20:09.191Z,102707.84
2023-02-04T15:23:13.056Z,102707.84
2023-02-04T15:26:14.984Z,102704.16
2023-02-04T15:29:17.102Z,102706.84
2023-02-04T15:32:18.833Z,102702.28
2023-02-04T15:35:21.788Z,102707.72
2023-02-04T15:38:24.108Z,102701.44
2023-02-04T15:41:25.928Z,102704.16
2023-02-04T15:44:27.509Z,102705.00
2023-02-04T15:47:29.076Z,102698.72
2023-02-04T15:50:31.230Z,102705.00
2023-02-04T15:53:34.714Z,102714.00
2023-02-04T15:56:36.208Z,102708.59
2023-02-04T15:59:37.712Z,102713.06
2023-02-04T16:02:39.278Z,102722.06
2023-02-04T16:05:40.805Z,102716.53
2023-02-04T16:08:42.318Z,102710.34
2023-02-04T16:11:43.839Z,102721.19
2023-02-04T16:14:45.312Z,102720.34
2023-02-04T16:17:46.823Z,102732.91
2023-02-04T16:20:48.255Z,102733.69
2023-02-04T16:23:49.724Z,102744.41
2023-02-04T16:26:51.224Z,102740.75
2023-02-04T16:29:54.865Z,102733.38
2023-02-04T16:32:58.015Z,102734.25
2023-02-04T16:36:11.577Z,102730.47
2023-02-04T16:39:13.271Z,102739.47
2023-02-04T16:42:15.196Z,102742.28
2023-02-04T16:45:16.746Z,102739.56
2023-02-04T16:48:18.352Z,102741.41
2023-02-04T16:51:20.390Z,102740.44
2023-02-04T16:54:21.833Z,102742.19
2023-02-04T16:57:23.767Z,102743.91
2023-02-04T17:00:25.216Z,102737.53
2023-02-04T17:03:28.024Z,102741.09
2023-02-04T17:06:32.469Z,102743.59
2023-02-04T17:09:33.955Z,102754.47
2023-02-04T17:12:35.393Z,102750.03
2023-02-04T17:15:36.918Z,102751.75
2023-02-04T17:18:38.679Z,102751.75
2023-02-04T17:21:40.791Z,102748.09
2023-02-04T17:24:43.654Z,102750.69
2023-02-04T17:27:45.155Z,102760.56
2023-02-04T17:30:46.764Z,102761.44
2023-02-04T17:33:48.623Z,102753.16
2023-02-04T17:36:50.092Z,102762.22
2023-02-04T17:39:51.586Z,102759.50
2023-02-04T17:42:53.263Z,102769.47
2023-02-04T17:45:54.906Z,102776.66
2023-02-04T17:48:56.535Z,102767.63
2023-02-04T17:51:57.991Z,102771.22
2023-02-04T17:55:10.036Z,102767.44
2023-02-04T17:58:19.971Z,102771.88
2023-02-04T18:01:23.681Z,102766.44
2023-02-04T18:04:25.565Z,102760.94
2023-02-04T18:07:27.155Z,102762.78
2023-02-04T18:10:35.530Z,102764.41
2023-02-04T18:13:37.121Z,102765.28
2023-02-04T18:16:39.843Z,102766.94
2023-02-04T18:19:44.891Z,102757.81
2023-02-04T18:22:53.563Z,102766.66
2023-02-04T18:25:56.042Z,102761.09
2023-02-04T18:28:59.432Z,102759.94
2023-02-04T18:32:20.656Z,102760.56
2023-02-04T18:35:46.989Z,102769.72
2023-02-04T18:38:49.820Z,102768.22
2023-02-04T18:41:52.075Z,102766.69
2023-02-04T18:44:54.983Z,102765.94
2023-02-04T18:48:01.450Z,102769.59
2023-02-04T18:51:17.977Z,102777.66
2023-02-04T18:54:36.751Z,102777.44
2023-02-04T18:57:39.607Z,102779.19
2023-02-04T19:00:42.086Z,102782.56
2023-02-04T19:03:58.497Z,102785.00
2023-02-04T19:07:01.311Z,102776.72
2023-02-04T19:10:25.791Z,102777.50
2023-02-04T19:13:42.151Z,102778.28
2023-02-04T19:16:45.101Z,102778.28
2023-02-04T19:19:51.380Z,102786.31
2023-02-04T19:22:54.956Z,102790.00
2023-02-04T19:25:56.620Z,102795.22
2023-02-04T19:28:58.209Z,102802.41
2023-02-04T19:32:18.565Z,102803.09
2023-02-04T19:35:22.512Z,102812.19
2023-02-04T19:38:45.129Z,102813.75
2023-02-04T19:41:49.020Z,102814.59
2023-02-04T19:44:51.486Z,102814.50
2023-02-04T19:47:54.976Z,102799.97
2023-02-04T19:50:56.441Z,102804.44
2023-02-04T19:54:10.205Z,102804.00
2023-02-04T19:57:29.186Z,102805.56
2023-02-04T20:00:33.622Z,102806.34
2023-02-04T20:03:44.113Z,102798.06
2023-02-04T20:06:47.628Z,102798.84
2023-02-04T20:09:58.721Z,102812.31
2023-02-04T20:13:16.494Z,102799.41
2023-02-04T20:16:38.451Z,102803.84
2023-02-04T20:19:41.949Z,102805.59
2023-02-04T20:22:55.470Z,102803.53
2023-02-04T20:25:57.182Z,102797.25
2023-02-04T20:28:58.680Z,102798.97
2023-02-04T20:32:01.066Z,102796.06
2023-02-04T20:35:11.622Z,102803.22
2023-02-04T20:38:17.426Z,102789.66
2023-02-04T20:41:20.808Z,102791.38
2023-02-04T20:44:27.537Z,102798.44
2023-02-04T20:47:29.794Z,102788.47
2023-02-04T20:50:51.899Z,102782.06
2023-02-04T20:53:58.962Z,102783.78
2023-02-04T20:57:17.597Z,102779.13
2023-02-04T21:00:29.676Z,102779.91
2023-02-04T21:03:36.670Z,102776.53
2023-02-04T21:06:38.356Z,102767.63
2023-02-04T21:09:40.091Z,102759.69
2023-02-04T21:12:45.642Z,102755.97
2023-02-04T21:15:47.880Z,102755.97
2023-02-04T21:18:50.565Z,102748.81
2023-02-04T21:21:52.372Z,102748.81
2023-02-04T21:24:53.866Z,102745.22
2023-02-04T21:27:56.412Z,102738.91
2023-02-04T21:30:59.135Z,102729.91
2023-02-04T21:34:00.713Z,102725.56
2023-02-04T21:37:02.326Z,102738.38
2023-02-04T21:40:04.141Z,102745.66
2023-02-04T21:43:07.994Z,102744.00
2023-02-04T21:46:09.514Z,102740.53
2023-02-04T21:49:10.992Z,102736.19
2023-02-04T21:52:13.209Z,102739.88
2023-02-04T21:55:17.097Z,102739.97
2023-02-04T21:58:18.556Z,102741.19
2023-02-04T22:01:20.149Z,102745.84
2023-02-04T22:04:21.706Z,102742.34
2023-02-04T22:07:23.250Z,102746.22
2023-02-04T22:10:25.638Z,102739.94
2023-02-04T22:13:45.966Z,102734.81
2023-02-04T22:16:47.474Z,102733.94
2023-02-04T22:19:48.954Z,102742.22
2023-02-04T22:22:50.868Z,102742.31
2023-02-04T22:25:52.383Z,102739.59
2023-02-04T22:28:53.820Z,102738.91
2023-02-04T22:31:56.066Z,102737.28
2023-02-04T22:34:57.818Z,102739.09
2023-02-04T22:38:01.966Z,102729.31
2023-02-04T22:41:03.886Z,102733.00
2023-02-04T22:44:05.478Z,102731.28
2023-02-04T22:47:06.977Z,102737.78
2023-02-04T22:50:08.965Z,102732.53
2023-02-04T22:53:10.479Z,102726.25
2023-02-04T22:56:11.976Z,102721.03
2023-02-04T22:59:13.440Z,102727.53
2023-02-04T23:02:15.070Z,102735.13
2023-02-04T23:05:16.624Z,102735.22
2023-02-04T23:08:18.205Z,102738.03
2023-02-04T23:11:20.014Z,102732.81
2023-02-04T23:14:21.473Z,102728.34
2023-02-04T23:17:22.954Z,102731.28
2023-02-04T23:20:24.424Z,102732.34
2023-02-04T23:23:27.562Z,102730.63
2023-02-04T23:26:29.220Z,102734.41
2023-02-04T23:29:35.304Z,102734.50
2023-02-04T23:32:36.988Z,102737.28
2023-02-04T23:35:38.498Z,102746.41
2023-02-04T23:38:39.962Z,102746.50
2023-02-04T23:41:41.439Z,102743.91
2023-02-04T23:44:42.882Z,102741.28
2023-02-04T23:47:44.328Z,102741.41
2023-02-04T23:50:47.647Z,102738.69
2023-02-04T23:53:49.130Z,102729.00
2023-02-04T23:56:50.751Z,102721.72
2023-02-04T23:59:52.250Z,102720.00
